Time;durP1;ratioP1;P1;durP2;ratioP2;P2;SDS_P1;SDS_P2;PMS_P1;PMS_P2;Temp;Humidity;BMP_temperature;BMP_pressure;BME280_temperature;BME280_humidity;BME280_pressure;Samples;Min_cycle;Max_cycle;Signal;HPM_P1;HPM_P2
2021/07/02 00:01:02;;;;;;;7.33;5.67;;;;;;;11.47;79.71;95749.44;5009925;28;20540;-78
2021/07/02 00:03:27;;;;;;;8.43;5.70;;;;;;;11.51;79.57;95747.38;5007945;28;20215;-77
2021/07/02 00:05:52;;;;;;;7.30;5.37;;;;;;;11.48;79.24;95745.84;4992101;28;20574;-77
2021/07/02 00:08:18;;;;;;;7.87;6.13;;;;;;;11.50;79.13;95746.56;4975757;28;20176;-77
2021/07/02 00:10:43;;;;;;;8.40;5.70;;;;;;;11.51;79.14;95745.59;4992879;28;20258;-76
2021/07/02 00:13:08;;;;;;;7.73;5.60;;;;;;;11.54;79.21;95747.06;5004746;28;20210;-78
2021/07/02 00:15:34;;;;;;;7.00;5.73;;;;;;;11.46;79.63;95737.41;5002195;28;20195;-78
2021/07/02 00:17:59;;;;;;;8.90;5.47;;;;;;;11.42;79.66;95736.06;5007777;28;20200;-78
2021/07/02 00:20:24;;;;;;;7.23;5.17;;;;;;;11.43;79.68;95732.50;4991692;28;20199;-78
2021/07/02 00:22:50;;;;;;;7.70;6.20;;;;;;;11.44;79.88;95730.72;5009028;28;20190;-77
2021/07/02 00:25:15;;;;;;;8.70;5.90;;;;;;;11.38;80.18;95739.91;5011889;28;20179;-77
2021/07/02 00:27:40;;;;;;;7.23;6.03;;;;;;;11.36;80.03;95736.66;5011207;28;20199;-77
2021/07/02 00:30:06;;;;;;;7.57;5.33;;;;;;;11.35;80.00;95728.03;5011226;28;20186;-75
2021/07/02 00:32:31;;;;;;;9.10;5.90;;;;;;;11.38;80.48;95724.31;4994601;28;20218;-77
2021/07/02 00:34:57;;;;;;;6.57;5.53;;;;;;;11.33;79.97;95726.56;4986649;28;20225;-77
2021/07/02 00:37:22;;;;;;;7.93;5.57;;;;;;;11.34;80.01;95720.41;5006785;28;20222;-77
2021/07/02 00:39:47;;;;;;;7.33;5.63;;;;;;;11.38;79.87;95723.50;5007638;28;20191;-77
2021/07/02 00:42:12;;;;;;;8.97;6.43;;;;;;;11.34;79.88;95717.78;5010992;28;20545;-77
2021/07/02 00:44:43;;;;;;;7.83;5.97;;;;;;;11.35;80.00;95715.03;5007762;28;20191;-77
2021/07/02 00:47:10;;;;;;;7.80;5.67;;;;;;;11.32;80.01;95727.53;5005011;28;20207;-77
2021/07/02 00:49:36;;;;;;;8.47;6.07;;;;;;;11.35;80.27;95725.44;4975073;28;20639;-77
2021/07/02 00:52:03;;;;;;;9.60;5.80;;;;;;;11.34;80.10;95723.00;4991510;28;20183;-78
2021/07/02 00:54:28;;;;;;;6.80;6.10;;;;;;;11.36;79.80;95718.44;4992304;28;20204;-77
2021/07/02 00:56:53;;;;;;;8.40;6.40;;;;;;;11.29;80.09;95720.81;5008351;28;20214;-78
2021/07/02 00:59:19;;;;;;;8.33;6.20;;;;;;;11.24;80.37;95714.44;5010823;28;20328;-78
2021/07/02 01:01:44;;;;;;;8.53;6.73;;;;;;;11.26;80.15;95718.53;5006951;28;20188;-77
2021/07/02 01:04:09;;;;;;;8.00;5.67;;;;;;;11.23;80.38;95718.84;4991163;28;20176;-78
2021/07/02 01:06:35;;;;;;;7.80;6.13;;;;;;;11.28;80.25;95718.38;5008716;28;20239;-78
2021/07/02 01:09:03;;;;;;;7.37;5.57;;;;;;;11.21;80.63;95717.31;4995147;28;20267;-78
2021/07/02 01:11:28;;;;;;;7.30;6.33;;;;;;;11.22;80.76;95717.19;4995241;28;20183;-78
2021/07/02 01:13:53;;;;;;;10.03;6.60;;;;;;;11.22;80.62;95713.75;4994856;28;20207;-77
2021/07/02 01:16:19;;;;;;;10.00;6.60;;;;;;;11.22;80.95;95718.94;4985780;28;20225;-76
2021/07/02 01:18:44;;;;;;;9.47;6.20;;;;;;;11.20;80.73;95719.09;4998841;28;20203;-78
2021/07/02 01:21:12;;;;;;;8.13;6.60;;;;;;;11.22;80.86;95716.34;5015319;28;20234;-77
2021/07/02 01:23:37;;;;;;;7.97;6.60;;;;;;;11.20;80.97;95710.50;5014887;28;20171;-77
2021/07/02 01:26:03;;;;;;;7.70;6.43;;;;;;;11.24;80.87;95719.66;5013169;28;20179;-77
2021/07/02 01:28:28;;;;;;;10.40;6.43;;;;;;;11.26;80.68;95722.91;5026846;28;20724;-77
2021/07/02 01:30:53;;;;;;;7.87;6.60;;;;;;;11.22;80.68;95721.56;4998891;28;20251;-77
2021/07/02 01:33:19;;;;;;;8.00;6.37;;;;;;;11.19;81.16;95725.28;4998539;28;20214;-77
2021/07/02 01:35:44;;;;;;;8.63;6.93;;;;;;;11.15;81.35;95712.72;5014822;28;20696;-77
2021/07/02 01:38:09;;;;;;;9.03;6.30;;;;;;;11.13;81.41;95717.22;5014283;28;20211;-77
2021/07/02 01:40:35;;;;;;;8.53;6.10;;;;;;;11.17;81.29;95716.00;5013174;28;20639;-78
2021/07/02 01:43:00;;;;;;;10.03;6.53;;;;;;;11.18;81.27;95720.22;5000949;28;20207;-78
2021/07/02 01:45:26;;;;;;;10.80;6.73;;;;;;;11.16;81.25;95716.97;4995622;28;20195;-78
2021/07/02 01:47:52;;;;;;;8.70;6.50;;;;;;;11.17;81.21;95722.00;4982208;28;20307;-77
2021/07/02 01:50:17;;;;;;;7.67;5.97;;;;;;;11.16;81.32;95720.38;5014710;28;20270;-78
2021/07/02 01:52:42;;;;;;;9.40;6.30;;;;;;;11.12;81.77;95718.19;5014271;28;20647;-77
2021/07/02 01:55:08;;;;;;;10.27;6.47;;;;;;;11.09;81.47;95718.50;5013436;28;20671;-76
2021/07/02 01:57:33;;;;;;;10.43;7.00;;;;;;;11.13;81.56;95717.22;5015099;28;20206;-78
2021/07/02 01:59:59;;;;;;;8.90;6.97;;;;;;;11.12;81.78;95718.19;5008756;28;20184;-77
2021/07/02 02:02:24;;;;;;;13.63;6.67;;;;;;;11.11;81.58;95711.38;4996877;28;20183;-77
2021/07/02 02:04:50;;;;;;;8.27;6.80;;;;;;;11.14;81.63;95717.13;5013540;28;20191;-77
2021/07/02 02:07:15;;;;;;;9.43;7.03;;;;;;;11.14;81.64;95717.13;5013562;28;20689;-77
2021/07/02 02:09:41;;;;;;;8.60;6.80;;;;;;;11.12;81.82;95710.41;5006553;28;20180;-77
2021/07/02 02:12:07;;;;;;;9.67;6.83;;;;;;;11.11;81.83;95706.19;5012614;28;20270;-77
2021/07/02 02:14:32;;;;;;;10.17;6.77;;;;;;;11.15;81.72;95708.34;5014489;28;20212;-76
2021/07/02 02:16:58;;;;;;;8.13;6.67;;;;;;;11.12;81.55;95706.03;4996267;28;20215;-77
2021/07/02 02:19:24;;;;;;;8.23;6.97;;;;;;;11.05;81.68;95703.22;5016693;28;20213;-77
2021/07/02 02:21:49;;;;;;;9.60;6.90;;;;;;;11.04;82.07;95705.94;5013894;28;20187;-79
2021/07/02 02:24:15;;;;;;;10.60;6.97;;;;;;;10.99;82.10;95706.38;5008867;28;20556;-78
2021/07/02 02:26:40;;;;;;;9.07;6.50;;;;;;;10.90;82.47;95702.06;5009143;28;20203;-77
2021/07/02 02:29:07;;;;;;;8.60;6.80;;;;;;;10.90;82.58;95691.69;5013506;28;20289;-78
2021/07/02 02:31:32;;;;;;;8.40;6.83;;;;;;;10.81;82.70;95696.94;5011875;28;20541;-77
2021/07/02 02:33:57;;;;;;;10.20;7.27;;;;;;;10.80;82.54;95690.09;5012441;28;20265;-76
2021/07/02 02:36:22;;;;;;;9.83;6.97;;;;;;;10.75;83.21;95693.13;5012840;28;20268;-75
2021/07/02 02:38:48;;;;;;;8.40;6.93;;;;;;;10.64;83.54;95698.53;4996364;28;20191;-76
2021/07/02 02:41:13;;;;;;;9.40;7.00;;;;;;;10.64;83.68;95704.53;4993548;28;20184;-76
2021/07/02 02:43:39;;;;;;;10.60;7.00;;;;;;;10.60;83.82;95702.34;4996058;28;20528;-76
2021/07/02 02:46:04;;;;;;;10.20;7.50;;;;;;;10.61;83.92;95704.00;4996238;28;20701;-77
2021/07/02 02:48:30;;;;;;;9.90;7.50;;;;;;;10.55;84.02;95699.38;5012851;28;20179;-76
2021/07/02 02:50:55;;;;;;;8.10;6.90;;;;;;;10.60;83.92;95707.53;4996381;28;20238;-75
2021/07/02 02:53:21;;;;;;;9.53;7.37;;;;;;;10.57;83.96;95703.47;5009962;28;20203;-77
2021/07/02 02:55:46;;;;;;;9.20;7.30;;;;;;;10.53;84.07;95711.69;5012548;28;20191;-77
2021/07/02 02:58:11;;;;;;;12.83;7.47;;;;;;;10.61;83.90;95714.41;4995960;28;20269;-76
2021/07/02 03:00:37;;;;;;;7.33;6.50;;;;;;;10.57;83.84;95721.63;5013448;28;20188;-76
2021/07/02 03:03:02;;;;;;;8.60;6.93;;;;;;;10.57;83.82;95719.03;5007796;28;20652;-76
2021/07/02 03:05:28;;;;;;;9.87;7.53;;;;;;;10.52;83.98;95713.47;5011929;28;20233;-76
2021/07/02 03:07:55;;;;;;;8.73;6.90;;;;;;;10.49;84.28;95719.75;5012162;28;20199;-77
2021/07/02 03:10:21;;;;;;;9.37;7.10;;;;;;;10.50;84.45;95723.16;4980350;28;20671;-77
2021/07/02 03:12:46;;;;;;;8.70;7.30;;;;;;;10.49;84.52;95713.75;4994360;28;20275;-76
2021/07/02 03:15:12;;;;;;;8.57;7.30;;;;;;;10.54;84.11;95718.53;5006186;28;20289;-76
2021/07/02 03:17:37;;;;;;;11.77;7.77;;;;;;;10.50;84.29;95718.78;4995847;28;20207;-76
2021/07/02 03:20:06;;;;;;;9.17;7.70;;;;;;;10.56;84.40;95724.38;4996020;28;20270;-77
2021/07/02 03:22:31;;;;;;;9.13;7.53;;;;;;;10.61;84.27;95722.19;5013449;28;20187;-77
2021/07/02 03:24:56;;;;;;;10.23;7.60;;;;;;;10.64;84.30;95725.31;5010465;28;20270;-77
2021/07/02 03:27:22;;;;;;;9.60;7.60;;;;;;;10.65;83.92;95716.56;5011970;28;20707;-76
2021/07/02 03:29:47;;;;;;;10.73;6.73;;;;;;;10.70;83.68;95718.72;5013514;28;20187;-77
2021/07/02 03:32:12;;;;;;;11.07;7.67;;;;;;;10.70;83.92;95721.31;4995695;28;20253;-77
2021/07/02 03:34:38;;;;;;;10.57;7.93;;;;;;;10.71;84.01;95725.56;5006901;28;20219;-77
2021/07/02 03:37:04;;;;;;;8.17;6.47;;;;;;;10.73;83.70;95723.63;5009555;28;20742;-77
2021/07/02 03:39:29;;;;;;;8.07;7.27;;;;;;;10.74;83.86;95725.25;5011875;28;20183;-76
2021/07/02 03:41:54;;;;;;;8.93;7.57;;;;;;;10.78;83.58;95732.63;5012987;28;20270;-76
2021/07/02 03:44:20;;;;;;;8.87;7.00;;;;;;;10.78;83.23;95731.81;4995126;28;20183;-76
2021/07/02 03:46:45;;;;;;;8.80;6.87;;;;;;;10.87;83.33;95738.75;5004739;28;20219;-76
2021/07/02 03:49:10;;;;;;;11.50;7.00;;;;;;;10.93;82.84;95737.31;4991960;28;20187;-76
2021/07/02 03:51:36;;;;;;;10.17;7.27;;;;;;;10.88;83.20;95732.59;4991954;28;20180;-76
2021/07/02 03:54:01;;;;;;;9.10;7.30;;;;;;;10.90;83.31;95737.63;4991795;28;20206;-77
2021/07/02 03:56:26;;;;;;;9.57;7.73;;;;;;;10.97;82.86;95736.91;4998643;28;20242;-76
2021/07/02 03:58:52;;;;;;;11.03;7.37;;;;;;;10.92;82.95;95738.28;5011364;28;20183;-76
2021/07/02 04:01:17;;;;;;;10.67;7.23;;;;;;;10.95;83.18;95735.41;4994658;28;20191;-76
2021/07/02 04:03:42;;;;;;;9.50;7.50;;;;;;;11.06;82.32;95730.03;5011345;28;20182;-77
2021/07/02 04:06:08;;;;;;;10.43;7.00;;;;;;;11.09;82.16;95741.91;5010024;28;20175;-77
2021/07/02 04:08:33;;;;;;;8.27;7.00;;;;;;;11.17;81.78;95729.00;5007172;28;20206;-76
2021/07/02 04:10:58;;;;;;;12.30;7.60;;;;;;;11.17;82.10;95734.19;5011175;28;20668;-78
2021/07/02 04:13:24;;;;;;;9.07;7.33;;;;;;;11.14;81.92;95735.31;4994706;28;20755;-77
2021/07/02 04:15:52;;;;;;;9.03;7.57;;;;;;;11.15;81.51;95738.72;5011343;28;20175;-77
2021/07/02 04:18:17;;;;;;;11.20;7.53;;;;;;;11.19;81.67;95734.84;4993710;28;20278;-76
2021/07/02 04:20:43;;;;;;;9.00;7.40;;;;;;;11.31;81.45;95736.28;5008034;28;20269;-76
2021/07/02 04:23:08;;;;;;;9.80;7.43;;;;;;;11.40;80.88;95738.00;4992583;28;20666;-77
2021/07/02 04:25:33;;;;;;;8.87;6.70;;;;;;;11.41;79.90;95744.84;4991462;28;20637;-77
2021/07/02 04:27:59;;;;;;;10.03;6.97;;;;;;;11.52;79.80;95749.00;4995222;28;20630;-76
2021/07/02 04:30:24;;;;;;;8.40;6.67;;;;;;;11.58;79.46;95748.41;4994568;28;20187;-77
2021/07/02 04:32:49;;;;;;;8.90;6.83;;;;;;;11.64;79.25;95755.59;5011023;28;20269;-76
2021/07/02 04:35:15;;;;;;;10.40;7.77;;;;;;;11.57;79.54;95749.34;5010883;28;20211;-77
2021/07/02 04:37:40;;;;;;;8.33;7.17;;;;;;;11.63;79.11;95746.97;4994378;28;20210;-77
2021/07/02 04:40:09;;;;;;;9.53;7.40;;;;;;;11.55;79.77;95743.50;5005464;28;20615;-77
2021/07/02 04:42:35;;;;;;;8.43;6.77;;;;;;;11.62;79.47;95747.97;4994386;28;20241;-77
2021/07/02 04:45:01;;;;;;;10.70;7.20;;;;;;;11.71;78.91;95745.44;4994293;28;20183;-77
2021/07/02 04:47:27;;;;;;;8.03;7.13;;;;;;;11.81;78.26;95752.22;5012199;28;20203;-76
2021/07/02 04:49:52;;;;;;;8.73;6.97;;;;;;;11.85;78.38;95747.53;5003102;28;20230;-77
2021/07/02 04:52:17;;;;;;;8.87;7.57;;;;;;;11.88;78.49;95753.25;5007572;28;20219;-77
2021/07/02 04:54:42;;;;;;;8.77;7.73;;;;;;;12.08;77.98;95756.50;4974926;28;20750;-77
2021/07/02 04:57:08;;;;;;;8.10;6.43;;;;;;;12.40;76.95;95761.09;4991096;28;20200;-76
2021/07/02 04:59:38;;;;;;;11.27;6.70;;;;;;;13.60;72.47;95763.56;4991562;28;20176;-77
2021/07/02 05:02:04;;;;;;;8.13;6.10;;;;;;;15.50;65.24;95766.47;4994830;28;20183;-77
2021/07/02 05:04:29;;;;;;;6.40;5.47;;;;;;;17.08;60.76;95760.38;5010736;28;20635;-77
2021/07/02 05:06:55;;;;;;;6.22;5.28;;;;;;;17.79;57.07;95766.66;4994772;28;20203;-78
2021/07/02 05:09:21;;;;;;;5.50;5.00;;;;;;;19.34;53.00;95763.91;5011221;28;20179;-77
2021/07/02 05:11:47;;;;;;;5.55;4.55;;;;;;;20.18;49.85;95760.09;4993342;28;20201;-77
2021/07/02 05:14:12;;;;;;;6.00;4.68;;;;;;;20.43;47.92;95760.31;4994160;28;20199;-77
2021/07/02 05:16:37;;;;;;;7.93;5.95;;;;;;;17.63;54.46;95766.88;5011145;28;20222;-78
2021/07/02 05:19:03;;;;;;;6.20;4.78;;;;;;;16.86;57.45;95763.91;4994415;28;20194;-78
2021/07/02 05:21:28;;;;;;;6.00;5.40;;;;;;;16.28;59.84;95768.88;5005787;28;20663;-78
2021/07/02 05:23:53;;;;;;;7.38;5.95;;;;;;;17.59;56.64;95770.88;4988436;28;20242;-78
2021/07/02 05:26:19;;;;;;;6.07;5.47;;;;;;;18.59;52.11;95769.97;4991559;28;20203;-78
2021/07/02 05:28:44;;;;;;;8.52;5.10;;;;;;;20.04;49.99;95768.00;4991242;28;20207;-77
2021/07/02 05:31:09;;;;;;;5.65;5.03;;;;;;;21.29;46.01;95773.41;5003005;28;20550;-78
2021/07/02 05:33:35;;;;;;;7.60;5.40;;;;;;;22.19;43.12;95776.84;5007153;28;20207;-76
2021/07/02 05:36:00;;;;;;;5.43;4.93;;;;;;;22.71;42.43;95783.53;5009938;28;20654;-78
2021/07/02 05:38:26;;;;;;;5.75;4.72;;;;;;;23.05;41.97;95784.03;5012981;28;20179;-78
2021/07/02 05:40:55;;;;;;;5.82;5.25;;;;;;;21.10;45.52;95780.34;5015419;28;20176;-77
2021/07/02 05:43:23;;;;;;;7.00;4.80;;;;;;;20.80;46.11;95777.34;5002014;28;20232;-77
2021/07/02 05:45:52;;;;;;;7.32;5.43;;;;;;;20.16;47.77;95777.97;4993615;28;20183;-78
2021/07/02 05:48:18;;;;;;;5.07;4.68;;;;;;;21.87;43.83;95782.09;5011009;28;20195;-79
2021/07/02 05:50:47;;;;;;;5.40;4.75;;;;;;;22.45;43.29;95791.72;5011519;28;20171;-77
2021/07/02 05:53:14;;;;;;;7.43;5.00;;;;;;;22.02;42.50;95785.25;5010603;28;20183;-77
2021/07/02 05:55:39;;;;;;;6.10;5.43;;;;;;;22.02;43.29;95777.31;5012800;28;20179;-77
2021/07/02 05:58:04;;;;;;;5.68;4.93;;;;;;;22.20;42.64;95787.19;5015272;28;20541;-77
2021/07/02 06:00:30;;;;;;;5.03;4.32;;;;;;;22.94;41.21;95787.44;4995974;28;20187;-77
2021/07/02 06:02:55;;;;;;;7.35;5.00;;;;;;;24.10;39.48;95783.81;4997907;28;20559;-77
2021/07/02 06:05:21;;;;;;;5.68;5.18;;;;;;;23.90;38.60;95789.41;5010347;28;20206;-76
2021/07/02 06:07:52;;;;;;;5.45;4.57;;;;;;;25.03;36.56;95791.16;5015025;28;20210;-77
2021/07/02 06:10:19;;;;;;;4.60;4.20;;;;;;;26.05;34.62;95777.25;4999223;28;20289;-76
2021/07/02 06:12:45;;;;;;;5.28;4.43;;;;;;;25.73;35.19;95790.22;5014005;28;20175;-78
2021/07/02 06:15:12;;;;;;;6.03;4.50;;;;;;;25.66;35.00;95793.78;5009367;28;20199;-78
2021/07/02 06:17:38;;;;;;;7.05;4.60;;;;;;;24.99;35.90;95795.25;5014858;28;20278;-77
2021/07/02 06:20:04;;;;;;;8.35;5.43;;;;;;;24.88;36.53;95788.09;5015337;28;20202;-79
2021/07/02 06:22:29;;;;;;;4.75;4.25;;;;;;;25.89;34.47;95797.47;4999400;28;20191;-78
2021/07/02 06:24:54;;;;;;;5.63;4.80;;;;;;;25.00;35.00;95803.03;5012289;28;20187;-78
2021/07/02 06:27:20;;;;;;;5.22;4.82;;;;;;;23.92;38.04;95806.69;5009064;28;20202;-77
2021/07/02 06:29:45;;;;;;;6.32;4.70;;;;;;;24.01;37.42;95801.88;5015411;28;20186;-79
2021/07/02 06:32:10;;;;;;;5.05;4.53;;;;;;;23.43;38.18;95813.81;5014443;28;20191;-79
2021/07/02 06:34:36;;;;;;;4.80;4.40;;;;;;;23.27;38.38;95816.22;5015264;28;20211;-80
2021/07/02 06:37:01;;;;;;;6.13;4.85;;;;;;;21.70;42.67;95807.38;5010888;28;20350;-79
2021/07/02 06:39:26;;;;;;;6.38;4.65;;;;;;;21.57;42.73;95812.75;5015187;28;20194;-79
2021/07/02 06:41:52;;;;;;;5.35;4.85;;;;;;;20.90;44.38;95812.06;4998748;28;20175;-80
2021/07/02 06:44:17;;;;;;;6.88;5.50;;;;;;;20.72;44.79;95809.25;4998843;28;20202;-80
2021/07/02 06:46:42;;;;;;;7.40;5.18;;;;;;;21.17;44.37;95812.81;4996872;28;20569;-78
2021/07/02 06:49:08;;;;;;;5.93;5.43;;;;;;;21.63;43.20;95817.16;5011098;28;20248;-79
2021/07/02 06:51:33;;;;;;;5.50;5.00;;;;;;;21.36;43.66;95821.72;5016196;28;20175;-79
2021/07/02 06:54:01;;;;;;;6.50;5.78;;;;;;;22.80;40.72;95821.16;5015013;28;20249;-77
2021/07/02 06:56:29;;;;;;;5.15;4.65;;;;;;;23.47;40.05;95824.75;5015967;28;20199;-79
2021/07/02 06:58:55;;;;;;;6.45;4.95;;;;;;;23.93;38.17;95823.41;4996616;28;20183;-77
2021/07/02 07:01:21;;;;;;;5.75;4.82;;;;;;;24.90;35.97;95824.03;5014841;28;20198;-78
2021/07/02 07:03:46;;;;;;;6.45;4.72;;;;;;;24.62;36.61;95827.34;5015242;28;20269;-79
2021/07/02 07:06:11;;;;;;;6.07;5.45;;;;;;;24.70;35.53;95834.16;4999413;28;20201;-78
2021/07/02 07:08:36;;;;;;;7.38;5.10;;;;;;;24.67;34.22;95822.16;5013930;28;20659;-80
2021/07/02 07:11:02;;;;;;;5.60;5.05;;;;;;;24.31;35.31;95820.44;5017119;28;20209;-79
2021/07/02 07:13:27;;;;;;;5.80;4.90;;;;;;;23.12;38.72;95832.47;5013652;28;20693;-75
2021/07/02 07:15:52;;;;;;;7.35;5.13;;;;;;;23.53;37.94;95823.88;5012274;28;20655;-77
2021/07/02 07:18:18;;;;;;;9.07;5.47;;;;;;;22.61;40.39;95830.84;5009411;28;20180;-76
2021/07/02 07:20:43;;;;;;;6.07;5.05;;;;;;;22.77;40.59;95821.56;5010597;28;20234;-77
2021/07/02 07:23:09;;;;;;;6.25;5.57;;;;;;;22.58;40.52;95829.44;5012913;28;20274;-77
2021/07/02 07:25:34;;;;;;;7.40;5.13;;;;;;;22.79;39.74;95836.22;5015329;28;20217;-77
2021/07/02 07:27:59;;;;;;;6.15;5.47;;;;;;;21.80;40.65;95831.53;5007669;28;20211;-75
2021/07/02 07:30:25;;;;;;;5.05;4.55;;;;;;;21.99;39.62;95827.97;4998732;28;20287;-78
2021/07/02 07:32:52;;;;;;;5.93;5.32;;;;;;;21.51;43.81;95835.50;5009187;28;20215;-77
2021/07/02 07:35:21;;;;;;;5.75;4.93;;;;;;;21.90;41.72;95839.81;5013249;28;20209;-77
2021/07/02 07:37:50;;;;;;;6.55;5.43;;;;;;;22.13;40.76;95830.56;4992390;28;20203;-78
2021/07/02 07:40:16;;;;;;;6.97;5.40;;;;;;;21.15;42.65;95830.72;4997688;28;20175;-76
2021/07/02 07:42:41;;;;;;;6.20;5.60;;;;;;;20.95;45.00;95836.03;5012752;28;20525;-77
2021/07/02 07:45:06;;;;;;;6.60;5.57;;;;;;;20.94;43.93;95837.03;5012668;28;20536;-77
2021/07/02 07:47:32;;;;;;;6.45;5.85;;;;;;;20.97;44.12;95833.97;4995989;28;20199;-78
2021/07/02 07:49:57;;;;;;;5.85;5.25;;;;;;;20.85;44.53;95835.63;5013070;28;20207;-78
2021/07/02 07:52:37;;;;;;;8.43;5.55;;;;;;;21.14;44.52;95835.19;4991248;28;20667;-78
2021/07/02 07:55:03;;;;;;;6.00;5.40;;;;;;;19.98;45.16;95847.88;4997424;28;20203;-78
2021/07/02 07:57:28;;;;;;;7.80;5.80;;;;;;;20.12;45.95;95842.63;5011818;28;20215;-78
2021/07/02 07:59:54;;;;;;;9.13;5.60;;;;;;;20.55;44.77;95840.50;5014274;28;20217;-77
2021/07/02 08:02:19;;;;;;;7.38;6.10;;;;;;;20.67;45.39;95846.78;5004625;28;20547;-76
2021/07/02 08:04:44;;;;;;;6.57;5.75;;;;;;;20.69;45.42;95857.16;5011412;28;20190;-76
2021/07/02 08:07:10;;;;;;;8.55;6.53;;;;;;;20.33;45.90;95847.75;5011708;28;20191;-77
2021/07/02 08:09:35;;;;;;;7.35;6.57;;;;;;;19.96;46.20;95857.78;5012945;28;20187;-77
2021/07/02 08:12:00;;;;;;;6.30;5.70;;;;;;;20.38;47.25;95855.88;5009133;28;20184;-77
2021/07/02 08:14:26;;;;;;;7.55;6.75;;;;;;;20.71;45.25;95855.13;5011481;28;20224;-77
2021/07/02 08:16:51;;;;;;;7.45;5.82;;;;;;;21.43;44.58;95848.94;5010996;28;20187;-77
2021/07/02 08:19:16;;;;;;;6.82;5.80;;;;;;;21.45;43.65;95852.19;4995388;28;20179;-77
2021/07/02 08:21:41;;;;;;;8.80;6.55;;;;;;;21.31;43.81;95853.25;5011427;28;20175;-76
2021/07/02 08:24:07;;;;;;;7.15;6.00;;;;;;;21.49;43.88;95851.59;5006775;28;20183;-76
2021/07/02 08:26:32;;;;;;;8.48;6.05;;;;;;;21.51;44.38;95859.28;5011280;28;20199;-78
2021/07/02 08:31:42;;;;;;;6.90;6.18;;;;;;;20.25;46.00;95850.59;5011690;28;20566;-77
2021/07/02 08:34:07;;;;;;;9.27;5.82;;;;;;;19.76;46.83;95860.38;5004455;28;20195;-77
2021/07/02 08:36:33;;;;;;;7.32;6.25;;;;;;;19.99;46.57;95867.16;4991553;28;20227;-77
2021/07/02 08:38:59;;;;;;;8.40;6.80;;;;;;;19.71;45.45;95859.34;4991538;28;20259;-77
2021/07/02 08:41:24;;;;;;;7.38;6.68;;;;;;;20.12;44.91;95858.44;4991925;28;20172;-77
2021/07/02 08:43:49;;;;;;;7.38;5.95;;;;;;;19.88;45.60;95860.63;4992479;28;20242;-78
2021/07/02 08:46:16;;;;;;;7.10;5.88;;;;;;;20.49;44.70;95852.66;5011080;28;20202;-78
2021/07/02 08:48:45;;;;;;;7.40;5.95;;;;;;;20.32;45.10;95860.13;5010950;28;20665;-77
2021/07/02 08:51:11;;;;;;;11.68;6.72;;;;;;;20.39;43.45;95862.75;5011056;28;20182;-77
2021/07/02 08:53:36;;;;;;;8.27;6.32;;;;;;;20.50;43.03;95856.13;5012015;28;20329;-77
2021/07/02 08:56:03;;;;;;;7.10;5.38;;;;;;;20.37;43.93;95857.69;4993159;28;20187;-77
2021/07/02 08:58:30;;;;;;;7.07;6.03;;;;;;;19.95;44.11;95863.28;5011432;28;20190;-79
2021/07/02 09:00:56;;;;;;;7.80;5.97;;;;;;;20.39;43.02;95868.03;5011130;28;20167;-77
2021/07/02 09:03:24;;;;;;;9.18;6.88;;;;;;;20.01;44.32;95873.84;5010757;28;20255;-78
2021/07/02 09:05:49;;;;;;;6.70;5.68;;;;;;;19.93;43.18;95874.00;5008753;28;20186;-76
2021/07/02 09:08:16;;;;;;;6.55;5.28;;;;;;;20.10;43.51;95874.47;4994504;28;20261;-77
2021/07/02 09:10:41;;;;;;;7.15;6.20;;;;;;;20.44;44.57;95865.66;4994511;28;20183;-77
2021/07/02 09:13:07;;;;;;;7.30;6.45;;;;;;;20.14;43.35;95870.41;4994247;28;20218;-77
2021/07/02 09:15:41;;;;;;;8.10;5.97;;;;;;;20.26;44.17;95874.13;4991729;28;20186;-77
2021/07/02 09:18:06;;;;;;;6.85;6.00;;;;;;;19.91;43.59;95888.41;5009879;28;20200;-78
2021/07/02 09:20:36;;;;;;;6.13;5.40;;;;;;;20.37;43.91;95881.44;4994593;28;20202;-77
2021/07/02 09:23:12;;;;;;;6.05;5.45;;;;;;;20.35;43.88;95875.53;4994285;28;20244;-78
2021/07/02 09:25:46;;;;;;;8.75;6.65;;;;;;;19.41;45.29;95879.81;4994555;28;20222;-76
2021/07/02 09:28:13;;;;;;;7.22;6.53;;;;;;;19.72;45.66;95882.88;5009563;28;20211;-76
2021/07/02 09:30:46;;;;;;;7.63;5.90;;;;;;;20.38;42.92;95877.78;5014485;28;20238;-76
2021/07/02 09:33:23;;;;;;;7.07;6.13;;;;;;;20.27;42.54;95880.19;5015104;28;20191;-78
2021/07/02 09:35:51;;;;;;;7.63;6.55;;;;;;;20.76;41.55;95871.97;4998187;28;20759;-76
2021/07/02 09:38:18;;;;;;;6.65;5.60;;;;;;;20.38;41.31;95871.69;4997086;28;20651;-78
2021/07/02 09:40:48;;;;;;;7.22;5.70;;;;;;;20.15;42.69;95881.81;5014540;28;20610;-77
2021/07/02 09:43:18;;;;;;;6.40;5.68;;;;;;;20.45;41.98;95871.75;5014072;28;20183;-78
2021/07/02 09:45:54;;;;;;;7.32;5.70;;;;;;;20.34;42.24;95881.03;5013908;28;20175;-77
2021/07/02 09:48:21;;;;;;;6.22;5.63;;;;;;;20.71;43.54;95881.50;5011963;28;20630;-77
2021/07/02 09:50:51;;;;;;;6.82;6.13;;;;;;;20.22;42.69;95888.69;5013740;28;20187;-77
2021/07/02 09:53:29;;;;;;;7.65;5.82;;;;;;;20.75;43.26;95888.81;5013935;28;20175;-77
2021/07/02 09:55:56;;;;;;;7.80;6.22;;;;;;;20.73;43.38;95884.75;5013821;28;20182;-77
2021/07/02 09:58:24;;;;;;;7.53;6.25;;;;;;;20.30;44.08;95885.06;5011666;28;20188;-77
2021/07/02 10:00:55;;;;;;;8.63;5.88;;;;;;;20.81;42.38;95890.63;5007796;28;20187;-77
2021/07/02 10:03:25;;;;;;;6.25;5.63;;;;;;;20.55;41.61;95888.78;5013829;28;20670;-77
2021/07/02 10:06:05;;;;;;;8.60;5.68;;;;;;;20.86;41.79;95890.03;5015218;28;20227;-78
2021/07/02 10:08:35;;;;;;;7.57;5.90;;;;;;;20.87;40.87;95887.19;5014794;28;20675;-77
2021/07/02 10:11:01;;;;;;;9.40;6.80;;;;;;;20.23;41.74;95887.72;5006070;28;20188;-77
2021/07/02 10:13:29;;;;;;;7.93;6.13;;;;;;;20.51;44.22;95890.22;5013146;28;20199;-77
2021/07/02 10:15:56;;;;;;;7.38;5.80;;;;;;;20.67;41.63;95888.19;5012994;28;20264;-76
2021/07/02 10:18:23;;;;;;;5.53;4.88;;;;;;;21.05;39.78;95897.13;5012871;28;20179;-75
2021/07/02 10:20:49;;;;;;;6.22;5.13;;;;;;;21.06;36.56;95898.75;4994450;28;20210;-77
2021/07/02 10:23:45;;;;;;;6.53;5.93;;;;;;;20.97;38.93;95897.34;4996103;28;20657;-76
2021/07/02 10:26:11;;;;;;;5.78;5.25;;;;;;;21.08;39.30;95890.63;4972512;28;20199;-76
2021/07/02 10:28:38;;;;;;;5.82;5.22;;;;;;;21.06;41.05;95898.75;4973528;28;20173;-78
2021/07/02 10:31:06;;;;;;;6.35;5.40;;;;;;;21.25;40.19;95891.03;4939538;28;20688;-76
2021/07/02 10:33:40;;;;;;;5.78;4.90;;;;;;;20.86;39.34;95895.31;4934210;29;20223;-77
2021/07/02 10:36:06;;;;;;;6.85;4.90;;;;;;;21.74;40.55;95893.19;4922200;28;20189;-78
2021/07/02 10:38:36;;;;;;;6.50;5.68;;;;;;;21.96;39.18;95893.69;4940158;28;20672;-76
2021/07/02 10:41:11;;;;;;;6.38;5.68;;;;;;;22.01;38.88;95901.81;4955418;28;20204;-75
2021/07/02 10:43:37;;;;;;;8.32;6.22;;;;;;;21.79;39.76;95901.28;4956598;28;20188;-77
2021/07/02 10:46:09;;;;;;;7.82;5.88;;;;;;;21.87;39.60;95903.69;4937027;29;20185;-78
2021/07/02 10:48:59;;;;;;;6.28;5.68;;;;;;;21.77;38.33;95904.13;4937763;29;20189;-78
2021/07/02 10:51:30;;;;;;;6.18;5.68;;;;;;;21.61;38.20;95899.31;4954084;28;20188;-77
2021/07/02 10:56:56;;;;;;;6.15;5.55;;;;;;;21.63;40.17;95909.66;4960953;28;20940;-77
2021/07/02 10:59:42;;;;;;;6.20;5.60;;;;;;;21.36;39.87;95911.53;4976003;28;20593;-78
2021/07/02 11:04:37;;;;;;;6.93;6.20;;;;;;;21.47;39.33;95913.59;5010150;28;20681;-78
2021/07/02 11:07:25;;;;;;;7.22;6.00;;;;;;;21.58;39.78;95905.00;5012707;28;20218;-78
2021/07/02 11:09:54;;;;;;;6.55;5.70;;;;;;;20.82;41.26;95909.94;5012746;28;20183;-79
2021/07/02 11:12:21;;;;;;;7.15;5.80;;;;;;;21.33;41.23;95906.69;5014675;28;20167;-79
2021/07/02 11:14:56;;;;;;;6.65;6.00;;;;;;;21.04;40.97;95910.56;5011333;28;20241;-77
2021/07/02 11:17:31;;;;;;;6.60;6.00;;;;;;;21.45;40.95;95905.03;4994703;28;20231;-78
2021/07/02 11:20:06;;;;;;;7.75;5.78;;;;;;;21.59;42.16;95911.91;4995023;28;20245;-78
2021/07/02 11:22:35;;;;;;;8.00;6.22;;;;;;;21.67;40.31;95914.34;5009739;28;20226;-78
2021/07/02 11:25:32;;;;;;;6.70;6.05;;;;;;;21.63;40.05;95909.66;5010894;28;20183;-79
2021/07/02 11:28:03;;;;;;;6.70;5.75;;;;;;;22.04;39.98;95909.31;5010718;28;20229;-78
2021/07/02 11:30:37;;;;;;;6.30;5.50;;;;;;;21.41;40.04;95911.75;5012676;28;20180;-78
2021/07/02 11:33:09;;;;;;;7.93;5.53;;;;;;;21.83;38.93;95907.78;5015218;28;20191;-79
2021/07/02 11:35:35;;;;;;;6.50;5.82;;;;;;;22.15;39.41;95911.31;5012706;28;20231;-78
2021/07/02 11:38:04;;;;;;;5.85;5.32;;;;;;;21.95;37.75;95900.00;5011969;28;20230;-78